Time;durP1;ratioP1;P1;durP2;ratioP2;P2;SDS_P1;SDS_P2;PMS_P1;PMS_P2;Temp;Humidity;BMP_temperature;BMP_pressure;BME280_temperature;BME280_humidity;BME280_pressure;Samples;Min_cycle;Max_cycle;Signal;HPM_P1;HPM_P2
2024/04/20 00:01:00;;;;;;;7.63;1.80;;;;;;;5.92;100.00;92575.44;2081167;28;20048;-82
2024/04/20 00:02:01;;;;;;;5.45;1.73;;;;;;;5.97;100.00;92570.44;2083269;28;20562;-83
2024/04/20 00:03:02;;;;;;;5.45;1.90;;;;;;;5.86;100.00;92567.16;2089597;28;20422;-83
2024/04/20 00:04:03;;;;;;;7.43;1.92;;;;;;;5.56;100.00;92579.25;2097674;28;20022;-84
2024/04/20 00:05:05;;;;;;;8.88;2.10;;;;;;;5.70;100.00;92572.25;2092661;28;20024;-83
2024/04/20 00:06:06;;;;;;;8.10;1.88;;;;;;;6.19;100.00;92576.22;2089490;28;20055;-82
2024/04/20 00:07:08;;;;;;;6.03;2.00;;;;;;;5.93;100.00;92571.66;2087379;28;20068;-82
2024/04/20 00:08:09;;;;;;;3.17;1.60;;;;;;;5.82;100.00;92569.84;2097678;28;20081;-82
2024/04/20 00:09:10;;;;;;;10.10;2.33;;;;;;;5.94;100.00;92571.25;2106190;28;20037;-82
2024/04/20 00:10:10;;;;;;;9.95;2.10;;;;;;;6.09;100.00;92568.38;2097319;28;20028;-82
2024/04/20 00:11:11;;;;;;;5.35;1.92;;;;;;;5.83;100.00;92578.53;2097915;28;20028;-83
2024/04/20 00:12:15;;;;;;;3.60;1.67;;;;;;;6.01;100.00;92579.13;2097255;28;20734;-82
2024/04/20 00:13:16;;;;;;;7.50;2.35;;;;;;;6.04;100.00;92580.94;2089911;28;20468;-81
2024/04/20 00:14:16;;;;;;;4.53;1.92;;;;;;;6.00;100.00;92574.19;2094605;28;20032;-83
2024/04/20 00:15:17;;;;;;;6.63;1.90;;;;;;;5.84;100.00;92579.28;2097174;28;20032;-83
2024/04/20 00:16:19;;;;;;;5.93;2.60;;;;;;;5.76;100.00;92579.41;2089699;28;20025;-82
2024/04/20 00:17:23;;;;;;;6.15;2.20;;;;;;;5.86;100.00;92577.75;2105762;28;20046;-83
2024/04/20 00:18:24;;;;;;;6.63;2.28;;;;;;;5.84;100.00;92571.34;2114625;28;20035;-83
2024/04/20 00:19:25;;;;;;;9.10;2.38;;;;;;;5.97;100.00;92581.06;2106031;28;20060;-82
2024/04/20 00:20:29;;;;;;;6.18;1.83;;;;;;;5.91;100.00;92579.97;2091477;28;20036;-82
2024/04/20 00:21:30;;;;;;;7.60;1.80;;;;;;;5.84;100.00;92582.72;2098457;28;20032;-83
2024/04/20 00:22:31;;;;;;;5.00;1.73;;;;;;;5.47;100.00;92578.22;2089351;28;20387;-83
2024/04/20 00:23:32;;;;;;;4.43;2.03;;;;;;;5.77;100.00;92578.25;2080834;28;20311;-84
2024/04/20 00:24:33;;;;;;;4.82;1.80;;;;;;;5.90;100.00;92577.72;2082173;28;20037;-82
2024/04/20 00:25:36;;;;;;;5.68;1.83;;;;;;;5.95;100.00;92587.91;2082080;28;20052;-83
2024/04/20 00:26:37;;;;;;;7.63;1.90;;;;;;;5.54;100.00;92586.84;2083689;28;20040;-82
2024/04/20 00:27:38;;;;;;;9.25;1.92;;;;;;;5.75;100.00;92587.72;2097357;28;20059;-85
2024/04/20 00:28:38;;;;;;;6.43;2.03;;;;;;;5.77;100.00;92580.16;2088740;28;20021;-83
2024/04/20 00:29:39;;;;;;;10.93;2.30;;;;;;;5.58;100.00;92580.75;2087426;28;20033;-83
2024/04/20 00:30:40;;;;;;;4.65;1.65;;;;;;;5.60;100.00;92581.09;2086826;28;20037;-83
2024/04/20 00:31:41;;;;;;;6.00;2.17;;;;;;;5.74;100.00;92586.22;2083524;28;20029;-85
2024/04/20 00:32:44;;;;;;;6.30;1.83;;;;;;;5.74;100.00;92586.22;2087984;28;20524;-85
2024/04/20 00:33:45;;;;;;;4.82;2.10;;;;;;;5.59;100.00;92598.16;2089744;28;20135;-84
2024/04/20 00:34:46;;;;;;;3.90;1.88;;;;;;;5.69;100.00;92590.06;2088935;28;20109;-83
2024/04/20 00:35:47;;;;;;;7.68;2.08;;;;;;;5.62;100.00;92584.09;2089131;28;20074;-84
2024/04/20 00:36:52;;;;;;;4.85;2.25;;;;;;;5.50;100.00;92580.84;2080851;28;20021;-84
2024/04/20 00:37:53;;;;;;;5.43;2.00;;;;;;;5.85;100.00;92586.88;2081898;28;20025;-84
2024/04/20 00:38:54;;;;;;;5.72;1.95;;;;;;;5.64;100.00;92590.53;2096422;28;20063;-83
2024/04/20 00:39:55;;;;;;;8.05;1.70;;;;;;;5.59;100.00;92571.66;2089110;28;20033;-82
2024/04/20 00:40:57;;;;;;;8.57;2.38;;;;;;;5.88;100.00;92580.00;2089048;28;20139;-83
2024/04/20 00:41:58;;;;;;;8.25;1.92;;;;;;;6.12;100.00;92583.53;2093501;28;20025;-82
2024/04/20 00:42:59;;;;;;;8.52;2.28;;;;;;;6.19;100.00;92586.06;2097360;28;20024;-83
2024/04/20 00:44:00;;;;;;;7.07;2.15;;;;;;;5.78;100.00;92592.25;2105688;28;20034;-83
2024/04/20 00:45:01;;;;;;;8.45;2.10;;;;;;;5.89;100.00;92587.56;2094747;28;20206;-83
2024/04/20 00:46:04;;;;;;;3.17;1.67;;;;;;;5.89;100.00;92576.97;2090399;28;20391;-84
2024/04/20 00:47:07;;;;;;;7.63;2.10;;;;;;;5.79;100.00;92583.13;2105504;28;20046;-83
2024/04/20 00:48:08;;;;;;;7.85;2.05;;;;;;;5.94;100.00;92584.50;2088554;28;20044;-84
2024/04/20 00:49:10;;;;;;;5.43;2.03;;;;;;;5.78;100.00;92584.28;2097341;28;20066;-84
2024/04/20 00:50:11;;;;;;;7.88;1.92;;;;;;;6.02;100.00;92583.25;2108231;28;20047;-83
2024/04/20 00:51:12;;;;;;;7.32;2.20;;;;;;;5.72;100.00;92583.25;2097461;28;20060;-85
2024/04/20 00:52:14;;;;;;;7.93;1.90;;;;;;;5.76;100.00;92582.03;2104150;28;20035;-83
2024/04/20 00:53:16;;;;;;;5.95;2.33;;;;;;;5.91;100.00;92579.22;2097096;28;20086;-83
2024/04/20 00:54:18;;;;;;;9.15;2.28;;;;;;;6.01;100.00;92583.66;2097868;28;20143;-83
2024/04/20 00:55:19;;;;;;;4.53;1.75;;;;;;;5.92;100.00;92583.38;2100376;28;20606;-83
2024/04/20 00:56:21;;;;;;;6.15;1.75;;;;;;;6.10;100.00;92583.91;2089135;28;20028;-83
2024/04/20 00:57:23;;;;;;;4.75;1.70;;;;;;;6.00;100.00;92582.16;2097063;28;20024;-83
2024/04/20 00:58:27;;;;;;;5.20;1.83;;;;;;;5.82;100.00;92585.75;2092038;28;20020;-82
2024/04/20 00:59:31;;;;;;;8.85;1.98;;;;;;;5.84;100.00;92589.91;2089962;28;20029;-83
2024/04/20 01:00:35;;;;;;;8.10;2.25;;;;;;;5.68;100.00;92587.84;2084577;28;20017;-82
2024/04/20 01:01:37;;;;;;;4.13;1.90;;;;;;;5.66;100.00;92579.50;2100161;28;20048;-83
2024/04/20 01:02:39;;;;;;;5.82;1.50;;;;;;;5.54;100.00;92589.50;2113818;28;20023;-83
2024/04/20 01:03:41;;;;;;;7.88;2.05;;;;;;;5.32;100.00;92588.22;2102985;28;20611;-84
2024/04/20 01:04:42;;;;;;;4.40;1.80;;;;;;;5.34;100.00;92595.78;2114042;28;20118;-85
2024/04/20 01:05:43;;;;;;;4.85;1.63;;;;;;;5.20;100.00;92591.38;2113758;28;20821;-84
2024/04/20 01:06:44;;;;;;;6.65;2.00;;;;;;;5.51;100.00;92592.19;2088908;28;20111;-84
2024/04/20 01:07:45;;;;;;;4.43;1.80;;;;;;;5.74;100.00;92580.94;2088192;28;20029;-84
2024/04/20 01:08:47;;;;;;;6.03;1.80;;;;;;;5.84;100.00;92584.59;2097005;28;20128;-83
2024/04/20 01:09:48;;;;;;;5.85;1.90;;;;;;;5.66;100.00;92588.22;2097312;28;20101;-83
2024/04/20 01:10:49;;;;;;;4.53;2.00;;;;;;;5.56;100.00;92592.50;2097233;28;20074;-84
2024/04/20 01:11:50;;;;;;;6.50;2.00;;;;;;;5.26;100.00;92603.03;2088990;28;20017;-83
2024/04/20 01:13:00;;;;;;;7.18;1.98;;;;;;;5.17;100.00;92597.47;2088955;28;20498;-83
2024/04/20 01:14:02;;;;;;;4.68;2.15;;;;;;;5.23;100.00;92594.00;2099633;28;20098;-84
2024/04/20 01:15:04;;;;;;;3.85;1.80;;;;;;;5.53;100.00;92589.88;2097296;28;20102;-83
2024/04/20 01:16:05;;;;;;;4.70;2.05;;;;;;;5.65;100.00;92594.66;2097359;28;20051;-83
2024/04/20 01:17:06;;;;;;;8.10;1.92;;;;;;;5.70;100.00;92591.56;2097162;28;20114;-85
2024/04/20 01:18:07;;;;;;;4.43;1.70;;;;;;;5.29;100.00;92599.63;2097115;28;20020;-83
2024/04/20 01:19:17;;;;;;;3.58;1.58;;;;;;;4.95;100.00;92602.97;2097147;28;20039;-83
2024/04/20 01:20:18;;;;;;;4.97;1.80;;;;;;;5.00;100.00;92599.91;2089849;28;20029;-82
2024/04/20 01:21:20;;;;;;;4.70;1.60;;;;;;;5.17;100.00;92597.47;2084215;28;20137;-83
2024/04/20 01:22:22;;;;;;;5.00;1.80;;;;;;;5.34;100.00;92601.09;2097310;28;20060;-83
2024/04/20 01:23:23;;;;;;;3.28;1.33;;;;;;;5.37;100.00;92592.34;2097086;28;20028;-83
2024/04/20 01:24:25;;;;;;;5.80;1.60;;;;;;;5.21;100.00;92595.53;2088986;28;20025;-83
2024/04/20 01:25:26;;;;;;;4.72;1.67;;;;;;;5.42;100.00;92605.91;2089141;28;20049;-83
2024/04/20 01:26:27;;;;;;;6.28;1.98;;;;;;;5.47;100.00;92600.16;2105521;28;20377;-83
2024/04/20 01:27:28;;;;;;;8.20;2.22;;;;;;;5.24;100.00;92603.44;2105395;28;20028;-82
2024/04/20 01:28:30;;;;;;;9.05;1.83;;;;;;;5.22;100.00;92604.97;2096868;28;20056;-83
2024/04/20 01:29:31;;;;;;;5.07;1.80;;;;;;;5.32;100.00;92609.44;2114061;28;20024;-85
2024/04/20 01:30:32;;;;;;;4.38;1.50;;;;;;;5.50;100.00;92609.25;2113760;28;20023;-83
2024/04/20 01:31:32;;;;;;;4.88;2.05;;;;;;;5.42;100.00;92607.81;2088723;28;20469;-82
2024/04/20 01:32:35;;;;;;;6.47;2.17;;;;;;;5.29;100.00;92610.22;2085549;28;20021;-84
2024/04/20 01:33:36;;;;;;;7.88;1.70;;;;;;;5.23;100.00;92599.31;2084756;28;20025;-83
2024/04/20 01:34:37;;;;;;;8.45;2.13;;;;;;;5.28;100.00;92598.88;2097228;28;20032;-83
2024/04/20 01:35:40;;;;;;;5.07;1.67;;;;;;;5.07;100.00;92608.91;2090710;28;20529;-83
2024/04/20 01:36:41;;;;;;;3.45;1.48;;;;;;;5.26;100.00;92601.13;2090803;28;20403;-82
2024/04/20 01:37:42;;;;;;;6.72;1.80;;;;;;;4.96;100.00;92609.78;2096998;28;20031;-83
2024/04/20 01:38:43;;;;;;;3.92;1.63;;;;;;;5.18;100.00;92614.84;2093685;28;20030;-83
2024/04/20 01:39:44;;;;;;;6.43;2.13;;;;;;;5.02;100.00;92615.41;2097143;28;20020;-83
2024/04/20 01:40:45;;;;;;;3.70;1.77;;;;;;;5.43;100.00;92617.25;2088776;28;20028;-83
2024/04/20 01:41:48;;;;;;;3.17;1.45;;;;;;;5.09;100.00;92610.00;2102639;28;20115;-82
2024/04/20 01:42:49;;;;;;;9.27;2.03;;;;;;;5.36;100.00;92607.50;2105443;28;20024;-83
2024/04/20 01:43:50;;;;;;;4.78;1.58;;;;;;;5.44;100.00;92610.81;2088670;28;20032;-84
2024/04/20 01:44:51;;;;;;;3.47;1.70;;;;;;;5.32;100.00;92621.94;2095710;28;20012;-83
2024/04/20 01:45:52;;;;;;;9.15;2.05;;;;;;;5.49;100.00;92603.19;2089073;28;20052;-83
2024/04/20 01:46:53;;;;;;;6.13;1.55;;;;;;;5.39;100.00;92603.28;2091765;28;20056;-83
2024/04/20 01:47:53;;;;;;;5.65;1.50;;;;;;;5.58;100.00;92609.94;2080621;28;20049;-83
2024/04/20 01:48:54;;;;;;;5.53;1.45;;;;;;;5.76;100.00;92613.13;2086384;28;20021;-83
2024/04/20 01:49:55;;;;;;;4.45;1.98;;;;;;;5.59;100.00;92611.41;2089378;28;20025;-84
2024/04/20 01:50:56;;;;;;;4.20;1.88;;;;;;;5.55;100.00;92617.50;2088661;28;20036;-84
2024/04/20 01:51:58;;;;;;;4.55;1.83;;;;;;;5.42;100.00;92608.56;2100474;28;20427;-83
2024/04/20 01:53:05;;;;;;;2.92;1.60;;;;;;;5.29;100.00;92615.50;2088703;28;20598;-84
2024/04/20 01:54:08;;;;;;;9.65;1.70;;;;;;;5.49;100.00;92616.44;2089983;28;20033;-84
2024/04/20 01:55:09;;;;;;;5.97;1.75;;;;;;;5.15;100.00;92624.34;2088958;28;20032;-83
2024/04/20 01:56:11;;;;;;;3.30;1.40;;;;;;;5.62;100.00;92619.34;2096864;28;20082;-83
2024/04/20 01:57:12;;;;;;;4.65;1.70;;;;;;;5.56;100.00;92616.34;2088777;28;20028;-83
2024/04/20 01:58:13;;;;;;;5.65;1.92;;;;;;;5.69;100.00;92615.84;2088224;28;20863;-82
2024/04/20 01:59:14;;;;;;;5.85;2.03;;;;;;;6.02;100.00;92617.00;2080589;28;20032;-82
2024/04/20 02:00:15;;;;;;;8.73;2.33;;;;;;;5.70;100.00;92627.94;2083713;28;20029;-83
2024/04/20 02:01:16;;;;;;;6.22;1.75;;;;;;;5.36;100.00;92627.94;2080405;28;20040;-83
2024/04/20 02:02:21;;;;;;;4.32;1.65;;;;;;;5.54;100.00;92631.91;2087099;28;20479;-84
2024/04/20 02:03:22;;;;;;;9.05;2.08;;;;;;;5.73;100.00;92630.56;2089493;28;20064;-81
2024/04/20 02:04:23;;;;;;;4.60;1.90;;;;;;;5.71;100.00;92624.91;2088705;28;20438;-84
2024/04/20 02:05:25;;;;;;;7.75;2.00;;;;;;;5.65;100.00;92629.13;2088446;28;20119;-82
2024/04/20 02:06:26;;;;;;;5.03;1.70;;;;;;;5.51;100.00;92631.94;2096217;28;20089;-83
2024/04/20 02:07:27;;;;;;;2.80;1.42;;;;;;;5.64;100.00;92630.28;2092268;28;20625;-82
2024/04/20 02:08:28;;;;;;;2.63;1.48;;;;;;;5.44;100.00;92637.31;2093918;28;20043;-83
2024/04/20 02:09:29;;;;;;;4.40;1.70;;;;;;;5.32;100.00;92638.59;2096750;28;20024;-83
2024/04/20 02:10:30;;;;;;;7.07;1.80;;;;;;;5.21;100.00;92643.22;2105272;28;20059;-83
2024/04/20 02:11:31;;;;;;;5.00;1.48;;;;;;;5.31;100.00;92639.69;2101666;28;20015;-83
2024/04/20 02:12:32;;;;;;;7.68;1.73;;;;;;;5.57;100.00;92646.25;2088573;28;20021;-82
2024/04/20 02:13:33;;;;;;;6.25;1.80;;;;;;;5.44;100.00;92640.72;2095948;28;20028;-82
2024/04/20 02:14:34;;;;;;;3.60;1.48;;;;;;;5.43;100.00;92638.47;2088500;28;20024;-83
2024/04/20 02:15:35;;;;;;;3.90;1.83;;;;;;;5.24;100.00;92647.75;2082398;28;20529;-82
2024/04/20 02:16:36;;;;;;;5.43;1.55;;;;;;;5.54;100.00;92645.16;2089140;28;20107;-83
2024/04/20 02:17:37;;;;;;;6.35;1.70;;;;;;;5.61;100.00;92646.22;2096875;28;20086;-81
2024/04/20 02:18:38;;;;;;;5.65;1.67;;;;;;;5.45;100.00;92647.53;2092807;28;20013;-82
2024/04/20 02:19:39;;;;;;;6.22;1.88;;;;;;;5.79;100.00;92647.56;2080412;28;20205;-81
2024/04/20 02:20:40;;;;;;;5.07;1.52;;;;;;;5.33;100.00;92644.63;2086847;28;20390;-82
2024/04/20 02:21:41;;;;;;;3.78;1.58;;;;;;;5.70;100.00;92654.47;2096526;28;20442;-83
2024/04/20 02:22:42;;;;;;;5.82;2.20;;;;;;;5.27;100.00;92647.72;2096616;28;20044;-82
2024/04/20 02:23:43;;;;;;;5.30;1.35;;;;;;;5.22;100.00;92648.16;2088279;28;20461;-83
2024/04/20 02:24:44;;;;;;;4.47;1.67;;;;;;;5.29;100.00;92653.34;2102371;28;20051;-81
2024/04/20 02:25:45;;;;;;;8.73;1.58;;;;;;;5.39;100.00;92646.44;2088350;28;20032;-84
2024/04/20 02:27:55;;;;;;;;;;;;;;;3.41;100.00;92653.31;2148037;27;20562;-83
2024/04/20 02:28:56;;;;;;;2.55;1.60;;;;;;;3.47;100.00;92654.47;2122907;27;19915;-83
2024/04/20 02:29:57;;;;;;;5.45;1.88;;;;;;;3.69;100.00;92657.78;2112412;28;20028;-83
2024/04/20 02:30:58;;;;;;;6.22;1.60;;;;;;;3.64;100.00;92663.44;2112384;28;20055;-82
2024/04/20 02:31:59;;;;;;;5.82;1.60;;;;;;;3.64;100.00;92658.16;2112042;28;20072;-83
2024/04/20 02:33:00;;;;;;;4.55;1.30;;;;;;;3.64;100.00;92660.06;2103169;28;20018;-82
2024/04/20 02:34:08;;;;;;;5.53;1.40;;;;;;;3.50;100.00;92663.50;2112112;28;20672;-83
2024/04/20 02:35:09;;;;;;;6.15;1.88;;;;;;;3.51;100.00;92660.50;2108416;28;20040;-83
2024/04/20 02:36:10;;;;;;;4.05;1.63;;;;;;;3.68;100.00;92658.91;2095792;28;20032;-83
2024/04/20 02:37:11;;;;;;;4.13;1.48;;;;;;;3.51;100.00;92654.44;2089831;28;20021;-83
2024/04/20 02:38:12;;;;;;;3.58;1.55;;;;;;;3.52;100.00;92648.78;2103674;28;20028;-82
2024/04/20 02:39:13;;;;;;;6.88;1.88;;;;;;;3.72;100.00;92653.63;2112339;28;20511;-81
2024/04/20 02:40:14;;;;;;;3.92;2.55;;;;;;;3.78;100.00;92658.13;2098633;28;20130;-83
2024/04/20 02:41:15;;;;;;;5.13;2.00;;;;;;;3.64;100.00;92660.06;2103807;28;20067;-83
2024/04/20 02:42:16;;;;;;;6.50;1.45;;;;;;;3.70;100.00;92669.13;2101360;28;20032;-83
2024/04/20 02:43:17;;;;;;;5.15;1.40;;;;;;;3.72;100.00;92658.91;2096009;28;20059;-83
2024/04/20 02:44:18;;;;;;;3.90;1.48;;;;;;;3.88;100.00;92658.47;2112199;28;20178;-82
2024/04/20 02:45:19;;;;;;;7.38;2.13;;;;;;;3.77;100.00;92663.78;2116024;28;20408;-83
2024/04/20 02:46:20;;;;;;;3.88;1.55;;;;;;;3.54;100.00;92670.28;2120774;28;20472;-83
2024/04/20 02:47:21;;;;;;;7.03;2.33;;;;;;;3.85;100.00;92665.28;2112143;28;20023;-83
2024/04/20 02:48:22;;;;;;;3.78;1.50;;;;;;;3.66;100.00;92665.72;2117676;28;20134;-83
2024/04/20 02:49:23;;;;;;;6.13;1.80;;;;;;;3.68;100.00;92658.16;2103829;28;20024;-82
2024/04/20 02:50:24;;;;;;;3.08;1.52;;;;;;;3.37;100.00;92665.78;2107882;28;20031;-82
2024/04/20 02:51:25;;;;;;;3.65;1.40;;;;;;;3.42;100.00;92665.41;2095364;28;20107;-85
2024/04/20 02:52:26;;;;;;;6.65;1.80;;;;;;;3.58;100.00;92661.59;2087108;28;20482;-84
2024/04/20 02:53:27;;;;;;;5.07;1.63;;;;;;;3.43;100.00;92652.97;2087093;28;20465;-85
2024/04/20 02:54:28;;;;;;;4.72;1.45;;;;;;;3.34;100.00;92666.56;2095486;28;20040;-84
2024/04/20 02:55:29;;;;;;;5.10;1.52;;;;;;;3.24;100.00;92668.06;2095161;28;20029;-84
2024/04/20 02:56:30;;;;;;;4.82;2.10;;;;;;;3.35;100.00;92657.50;2103960;28;20377;-86
2024/04/20 02:57:31;;;;;;;3.10;1.33;;;;;;;3.50;100.00;92668.78;2103725;28;20418;-85
2024/04/20 02:58:32;;;;;;;3.05;1.23;;;;;;;3.49;100.00;92662.75;2089667;28;20078;-85
2024/04/20 02:59:33;;;;;;;4.78;1.50;;;;;;;3.53;100.00;92666.13;2096765;28;20108;-84
2024/04/20 03:00:34;;;;;;;4.10;1.42;;;;;;;3.66;100.00;92666.47;2097935;28;20124;-84
2024/04/20 03:01:35;;;;;;;3.88;1.77;;;;;;;3.44;100.00;92663.13;2095456;28;20028;-83
2024/04/20 03:02:36;;;;;;;3.75;1.63;;;;;;;3.44;100.00;92671.06;2103929;28;20353;-83
2024/04/20 03:03:39;;;;;;;5.28;1.88;;;;;;;3.48;100.00;92671.81;2106702;28;20438;-84
2024/04/20 03:04:41;;;;;;;4.05;1.25;;;;;;;3.43;100.00;92669.56;2095817;28;20442;-84
2024/04/20 03:05:42;;;;;;;3.72;1.52;;;;;;;3.61;100.00;92668.78;2094131;28;20032;-82
2024/04/20 03:06:43;;;;;;;6.50;1.83;;;;;;;3.50;100.00;92669.53;2095379;28;20032;-84
2024/04/20 03:07:44;;;;;;;5.88;1.60;;;;;;;3.45;100.00;92674.47;2102987;28;20027;-83
2024/04/20 03:08:45;;;;;;;3.17;1.40;;;;;;;3.45;100.00;92664.63;2107903;28;20624;-84
2024/04/20 03:09:46;;;;;;;4.93;1.80;;;;;;;3.34;100.00;92671.09;2103937;28;20334;-80
2024/04/20 03:10:47;;;;;;;5.20;1.42;;;;;;;3.52;100.00;92667.28;2103428;28;20028;-83
2024/04/20 03:11:48;;;;;;;3.47;1.67;;;;;;;3.70;100.00;92661.19;2116523;28;20082;-85
2024/04/20 03:12:52;;;;;;;6.40;1.63;;;;;;;3.67;100.00;92672.50;2103666;28;20455;-82
2024/04/20 03:13:53;;;;;;;4.28;1.60;;;;;;;3.71;100.00;92666.09;2098540;28;20116;-84
2024/04/20 03:14:54;;;;;;;5.38;2.10;;;;;;;3.76;100.00;92665.69;2103542;28;20584;-83
2024/04/20 03:16:02;;;;;;;5.97;1.65;;;;;;;3.41;100.00;92665.78;2095458;28;20032;-84
2024/04/20 03:17:03;;;;;;;3.47;1.58;;;;;;;3.62;100.00;92670.28;2104450;28;20042;-83
2024/04/20 03:18:04;;;;;;;4.47;1.95;;;;;;;3.48;100.00;92665.78;2103621;28;20024;-81
2024/04/20 03:19:05;;;;;;;2.70;1.30;;;;;;;3.51;100.00;92662.34;2102434;28;20051;-83
2024/04/20 03:20:06;;;;;;;5.63;1.70;;;;;;;3.37;100.00;92665.78;2098873;28;20031;-85
2024/04/20 03:21:07;;;;;;;4.70;1.48;;;;;;;3.41;100.00;92663.91;2095318;28;20094;-82
2024/04/20 03:22:10;;;;;;;3.80;1.23;;;;;;;3.38;100.00;92662.03;2102535;28;20051;-82
2024/04/20 03:23:11;;;;;;;3.95;1.48;;;;;;;3.37;100.00;92673.72;2097932;28;20067;-84
2024/04/20 03:24:12;;;;;;;6.53;1.70;;;;;;;3.29;100.00;92674.84;2103588;28;20115;-82
2024/04/20 03:25:13;;;;;;;6.63;1.38;;;;;;;3.31;100.00;92669.97;2092332;28;20803;-82
2024/04/20 03:26:14;;;;;;;2.42;1.40;;;;;;;3.41;100.00;92671.06;2086965;28;20033;-83
2024/04/20 03:27:15;;;;;;;4.40;1.60;;;;;;;3.38;100.00;92669.97;2086581;28;20560;-83
2024/04/20 03:28:16;;;;;;;5.65;1.70;;;;;;;3.42;100.00;92670.69;2087108;28;20057;-83
2024/04/20 03:29:18;;;;;;;2.47;1.20;;;;;;;3.46;100.00;92674.06;2102475;28;20077;-82
2024/04/20 03:30:19;;;;;;;5.53;1.73;;;;;;;3.27;100.00;92663.94;2100150;28;20545;-81
2024/04/20 03:31:20;;;;;;;3.80;1.63;;;;;;;3.18;100.00;92677.53;2095254;28;20088;-82
2024/04/20 03:32:21;;;;;;;7.28;1.98;;;;;;;3.29;100.00;92672.22;2115492;27;20020;-83
2024/04/20 03:33:28;;;;;;;5.13;1.63;;;;;;;3.22;100.00;92673.00;2116150;28;20026;-82
2024/04/20 03:34:29;;;;;;;3.38;1.33;;;;;;;3.25;100.00;92674.13;2096766;28;20032;-83
2024/04/20 03:35:30;;;;;;;3.63;1.40;;;;;;;3.47;100.00;92678.25;2098114;28;20016;-82
2024/04/20 03:36:31;;;;;;;4.47;1.80;;;;;;;3.44;100.00;92681.63;2103581;28;20024;-80
2024/04/20 03:37:32;;;;;;;7.00;1.85;;;;;;;3.40;100.00;92675.59;2101083;28;20179;-82
2024/04/20 03:38:33;;;;;;;5.82;1.70;;;;;;;3.32;100.00;92678.63;2093961;28;20028;-81
2024/04/20 03:39:34;;;;;;;5.88;2.00;;;;;;;3.47;100.00;92683.53;2089303;28;20114;-84
2024/04/20 03:40:35;;;;;;;3.25;1.63;;;;;;;3.16;100.00;92684.31;2088345;28;20028;-82
2024/04/20 03:41:36;;;;;;;4.65;1.38;;;;;;;3.23;100.00;92679.03;2103201;28;20028;-84
2024/04/20 03:42:37;;;;;;;4.53;2.10;;;;;;;3.35;100.00;92689.19;2102115;28;20503;-82
2024/04/20 03:43:38;;;;;;;8.70;1.67;;;;;;;3.22;100.00;92680.91;2097602;28;20032;-83
2024/04/20 03:44:39;;;;;;;3.85;1.48;;;;;;;3.15;100.00;92678.28;2106136;28;20131;-83
2024/04/20 03:45:40;;;;;;;4.97;1.60;;;;;;;3.18;100.00;92690.72;2091425;28;20067;-82
2024/04/20 03:46:42;;;;;;;4.40;1.60;;;;;;;3.10;100.00;92686.59;2109855;28;20049;-83
2024/04/20 03:47:43;;;;;;;5.13;1.80;;;;;;;3.14;100.00;92683.94;2106228;28;20133;-81
2024/04/20 03:48:45;;;;;;;5.30;1.70;;;;;;;3.22;100.00;92690.72;2110489;28;20500;-83
2024/04/20 03:49:46;;;;;;;4.68;2.13;;;;;;;3.11;100.00;92682.06;2097680;28;20044;-82
2024/04/20 03:50:54;;;;;;;4.95;1.70;;;;;;;3.35;100.00;92680.53;2096481;28;20122;-83
2024/04/20 03:51:55;;;;;;;4.10;1.38;;;;;;;3.37;100.00;92684.28;2097730;28;20108;-83
2024/04/20 03:52:57;;;;;;;2.38;1.35;;;;;;;3.38;100.00;92680.53;2089446;28;20104;-84
2024/04/20 03:53:59;;;;;;;5.57;1.65;;;;;;;3.28;100.00;92682.03;2105859;28;20469;-83
2024/04/20 03:55:00;;;;;;;5.22;1.60;;;;;;;3.15;100.00;92680.16;2097220;28;20031;-82
2024/04/20 03:56:02;;;;;;;4.95;1.35;;;;;;;3.19;100.00;92673.75;2105982;28;20027;-82
2024/04/20 03:57:03;;;;;;;3.83;1.40;;;;;;;3.34;100.00;92671.09;2101137;28;20024;-83
2024/04/20 03:58:04;;;;;;;6.20;1.50;;;;;;;3.46;100.00;92674.06;2105948;28;20027;-83
2024/04/20 03:59:05;;;;;;;3.28;1.10;;;;;;;3.41;100.00;92679.00;2081235;28;20083;-82
2024/04/20 04:00:08;;;;;;;3.85;1.77;;;;;;;3.42;100.00;92683.88;2091092;28;20017;-83
2024/04/20 04:01:09;;;;;;;4.20;1.42;;;;;;;3.27;100.00;92685.06;2089659;28;20044;-82
2024/04/20 04:02:10;;;;;;;3.17;1.30;;;;;;;3.19;100.00;92691.47;2085548;28;20056;-83
2024/04/20 04:03:24;;;;;;;3.83;1.30;;;;;;;3.29;100.00;92701.25;2098492;28;20031;-84
2024/04/20 04:04:25;;;;;;;2.40;1.10;;;;;;;3.26;100.00;92694.88;2099516;28;20039;-84
2024/04/20 04:05:27;;;;;;;3.33;1.40;;;;;;;3.31;100.00;92704.28;2094007;28;20024;-83
2024/04/20 04:06:29;;;;;;;4.00;1.10;;;;;;;3.23;100.00;92700.91;2099251;28;20062;-82
2024/04/20 04:07:30;;;;;;;3.17;1.00;;;;;;;3.22;100.00;92706.56;2084728;28;20471;-84
2024/04/20 04:08:31;;;;;;;3.42;1.25;;;;;;;3.27;100.00;92704.28;2089314;28;20021;-85
2024/04/20 04:09:32;;;;;;;2.58;0.90;;;;;;;3.33;100.00;92704.66;2089426;28;20028;-83
2024/04/20 04:10:33;;;;;;;4.10;1.20;;;;;;;3.45;100.00;92704.28;2093827;28;20028;-85
2024/04/20 04:11:34;;;;;;;2.17;1.00;;;;;;;3.45;100.00;92699.00;2089250;28;20056;-85
2024/04/20 04:12:35;;;;;;;1.80;1.00;;;;;;;3.27;100.00;92714.13;2096932;28;20131;-83
2024/04/20 04:13:37;;;;;;;1.80;0.82;;;;;;;3.18;100.00;92711.09;2091365;28;20115;-81
2024/04/20 04:14:40;;;;;;;3.00;0.90;;;;;;;3.12;100.00;92712.63;2097632;28;20107;-81
2024/04/20 04:15:41;;;;;;;3.35;1.00;;;;;;;3.26;100.00;92708.06;2081429;28;20021;-84
2024/04/20 04:16:43;;;;;;;2.08;1.00;;;;;;;3.28;100.00;92723.53;2090155;28;20036;-82
2024/04/20 04:17:47;;;;;;;3.45;1.13;;;;;;;3.18;100.00;92709.22;2104462;28;20036;-83
2024/04/20 04:18:48;;;;;;;1.52;0.85;;;;;;;3.30;100.00;92709.97;2087044;28;20033;-83
2024/04/20 04:19:49;;;;;;;3.30;0.90;;;;;;;3.42;100.00;92717.47;2096161;28;20024;-83
2024/04/20 04:20:50;;;;;;;2.88;1.25;;;;;;;3.32;100.00;92710.34;2090241;28;20029;-83
2024/04/20 04:21:51;;;;;;;2.03;0.90;;;;;;;3.58;100.00;92711.81;2087625;28;20141;-82
2024/04/20 04:22:52;;;;;;;0.60;0.60;;;;;;;3.27;100.00;92708.81;2089393;28;20423;-82
2024/04/20 04:23:53;;;;;;;3.22;1.02;;;;;;;3.38;100.00;92709.59;2085569;28;20029;-83
2024/04/20 04:24:54;;;;;;;1.40;0.80;;;;;;;3.47;100.00;92709.94;2097631;28;20028;-82
2024/04/20 04:25:55;;;;;;;1.33;0.80;;;;;;;3.30;100.00;92713.38;2113654;27;20133;-82
2024/04/20 04:27:11;;;;;;;2.50;0.95;;;;;;;3.33;100.00;92717.88;2111180;28;20582;-83
2024/04/20 04:28:12;;;;;;;3.63;1.20;;;;;;;3.38;100.00;92714.09;2107883;28;20765;-83
2024/04/20 04:29:13;;;;;;;1.98;0.90;;;;;;;3.22;100.00;92720.53;2102366;28;20055;-82
2024/04/20 04:30:14;;;;;;;1.80;0.80;;;;;;;3.22;100.00;92720.53;2094142;28;20033;-83
2024/04/20 04:31:16;;;;;;;1.50;0.70;;;;;;;3.26;100.00;92721.28;2104770;27;20477;-83
2024/04/20 04:32:17;;;;;;;2.35;0.80;;;;;;;3.46;100.00;92718.97;2103592;28;20032;-83
2024/04/20 04:33:18;;;;;;;1.02;0.75;;;;;;;3.55;100.00;92723.88;2114333;28;20118;-82
2024/04/20 04:34:19;;;;;;;2.92;0.90;;;;;;;3.57;100.00;92721.63;2114290;28;20105;-81
2024/04/20 04:35:20;;;;;;;3.22;1.40;;;;;;;3.75;100.00;92726.88;2106199;28;20122;-81
2024/04/20 04:36:21;;;;;;;1.25;0.68;;;;;;;3.74;100.00;92728.00;2097747;28;20032;-82
2024/04/20 04:37:22;;;;;;;0.80;0.65;;;;;;;3.57;100.00;92724.25;2089328;28;20017;-83
2024/04/20 04:38:23;;;;;;;0.70;0.70;;;;;;;3.48;100.00;92729.19;2089187;28;20044;-82
2024/04/20 04:39:24;;;;;;;2.05;0.70;;;;;;;3.47;100.00;92731.09;2097707;28;20021;-82
2024/04/20 04:40:25;;;;;;;2.85;0.82;;;;;;;3.31;100.00;92733.34;2089325;28;20039;-83
2024/04/20 04:41:26;;;;;;;0.85;0.60;;;;;;;3.34;100.00;92729.97;2097652;28;20128;-82
2024/04/20 04:42:29;;;;;;;2.78;0.95;;;;;;;3.53;100.00;92728.81;2099398;28;20047;-82
2024/04/20 04:43:30;;;;;;;0.82;0.65;;;;;;;3.41;100.00;92737.13;2091359;28;20032;-83
2024/04/20 04:44:31;;;;;;;1.35;0.88;;;;;;;3.25;100.00;92732.25;2089340;28;20131;-83
2024/04/20 04:45:32;;;;;;;1.23;0.70;;;;;;;3.27;100.00;92736.00;2093361;28;20056;-82
2024/04/20 04:46:33;;;;;;;1.92;1.02;;;;;;;3.37;100.00;92734.47;2106108;28;20047;-83
2024/04/20 04:47:34;;;;;;;1.95;0.68;;;;;;;3.49;100.00;92739.38;2089109;28;20490;-83
2024/04/20 04:48:45;;;;;;;0.95;0.70;;;;;;;3.52;100.00;92735.22;2098284;28;20082;-82
2024/04/20 04:49:46;;;;;;;2.45;0.60;;;;;;;3.62;100.00;92733.69;2096110;28;20035;-82
2024/04/20 04:50:47;;;;;;;0.93;0.50;;;;;;;3.49;100.00;92733.34;2090165;28;20048;-83
2024/04/20 04:51:48;;;;;;;3.78;0.70;;;;;;;3.53;100.00;92736.72;2089892;28;20116;-83